sensor_id;sensor_type;location;lat;lon;timestamp;P1;durP1;ratioP1;P2;durP2;ratioP2
75044;SDS011;63614;56.026;35.960;2023-02-01T00:01:43;6.15;;;3.25;;
75044;SDS011;63614;56.026;35.960;2023-02-01T00:04:09;4.70;;;3.30;;
75044;SDS011;63614;56.026;35.960;2023-02-01T00:06:35;9.88;;;3.53;;
75044;SDS011;63614;56.026;35.960;2023-02-01T00:09:01;7.25;;;3.25;;
75044;SDS011;63614;56.026;35.960;2023-02-01T00:11:27;6.95;;;3.30;;
75044;SDS011;63614;56.026;35.960;2023-02-01T00:13:53;5.95;;;3.40;;
75044;SDS011;63614;56.026;35.960;2023-02-01T00:16:20;6.55;;;3.22;;
75044;SDS011;63614;56.026;35.960;2023-02-01T00:18:49;5.88;;;3.90;;
75044;SDS011;63614;56.026;35.960;2023-02-01T00:23:43;5.43;;;3.63;;
75044;SDS011;63614;56.026;35.960;2023-02-01T00:28:48;5.80;;;3.88;;
75044;SDS011;63614;56.026;35.960;2023-02-01T00:31:13;5.28;;;3.83;;
75044;SDS011;63614;56.026;35.960;2023-02-01T00:33:40;8.35;;;4.00;;
75044;SDS011;63614;56.026;35.960;2023-02-01T00:36:06;8.88;;;4.28;;
75044;SDS011;63614;56.026;35.960;2023-02-01T00:38:36;8.00;;;4.53;;
75044;SDS011;63614;56.026;35.960;2023-02-01T00:41:04;7.07;;;4.50;;
75044;SDS011;63614;56.026;35.960;2023-02-01T00:43:33;6.90;;;4.15;;
75044;SDS011;63614;56.026;35.960;2023-02-01T00:45:59;6.93;;;4.65;;
75044;SDS011;63614;56.026;35.960;2023-02-01T00:48:25;8.00;;;5.00;;
75044;SDS011;63614;56.026;35.960;2023-02-01T00:50:51;7.65;;;4.72;;
75044;SDS011;63614;56.026;35.960;2023-02-01T00:53:18;7.50;;;4.40;;
75044;SDS011;63614;56.026;35.960;2023-02-01T00:55:47;8.20;;;4.82;;
75044;SDS011;63614;56.026;35.960;2023-02-01T00:58:14;7.00;;;4.00;;
75044;SDS011;63614;56.026;35.960;2023-02-01T01:00:40;7.85;;;4.20;;
75044;SDS011;63614;56.026;35.960;2023-02-01T01:03:06;6.53;;;4.43;;
75044;SDS011;63614;56.026;35.960;2023-02-01T01:05:44;8.73;;;4.60;;
75044;SDS011;63614;56.026;35.960;2023-02-01T01:08:14;9.85;;;4.72;;
75044;SDS011;63614;56.026;35.960;2023-02-01T01:10:41;7.40;;;4.30;;
75044;SDS011;63614;56.026;35.960;2023-02-01T01:13:08;5.90;;;3.90;;
75044;SDS011;63614;56.026;35.960;2023-02-01T01:15:38;5.63;;;3.60;;
75044;SDS011;63614;56.026;35.960;2023-02-01T01:18:04;5.95;;;4.18;;
75044;SDS011;63614;56.026;35.960;2023-02-01T01:20:31;7.65;;;4.55;;
75044;SDS011;63614;56.026;35.960;2023-02-01T01:22:59;6.78;;;4.25;;
75044;SDS011;63614;56.026;35.960;2023-02-01T01:25:25;7.22;;;5.03;;
75044;SDS011;63614;56.026;35.960;2023-02-01T01:27:51;10.18;;;6.13;;
75044;SDS011;63614;56.026;35.960;2023-02-01T01:30:17;10.80;;;6.70;;
75044;SDS011;63614;56.026;35.960;2023-02-01T01:32:43;10.70;;;6.57;;
75044;SDS011;63614;56.026;35.960;2023-02-01T01:35:09;8.75;;;6.15;;
75044;SDS011;63614;56.026;35.960;2023-02-01T01:37:36;9.52;;;5.47;;
75044;SDS011;63614;56.026;35.960;2023-02-01T01:40:03;11.10;;;6.80;;
75044;SDS011;63614;56.026;35.960;2023-02-01T04:38:33;10.30;;;5.13;;
75044;SDS011;63614;56.026;35.960;2023-02-01T04:40:59;11.55;;;5.38;;
75044;SDS011;63614;56.026;35.960;2023-02-01T04:43:25;11.82;;;5.50;;
75044;SDS011;63614;56.026;35.960;2023-02-01T04:45:51;12.95;;;5.93;;
75044;SDS011;63614;56.026;35.960;2023-02-01T04:48:17;11.38;;;5.78;;
75044;SDS011;63614;56.026;35.960;2023-02-01T04:50:45;13.20;;;5.13;;
75044;SDS011;63614;56.026;35.960;2023-02-01T04:53:14;11.43;;;5.50;;
75044;SDS011;63614;56.026;35.960;2023-02-01T04:55:40;11.63;;;4.90;;
75044;SDS011;63614;56.026;35.960;2023-02-01T04:58:07;9.27;;;5.00;;
75044;SDS011;63614;56.026;35.960;2023-02-01T05:00:32;11.77;;;5.70;;
75044;SDS011;63614;56.026;35.960;2023-02-01T05:02:58;7.38;;;4.68;;
75044;SDS011;63614;56.026;35.960;2023-02-01T05:05:24;8.13;;;5.53;;
75044;SDS011;63614;56.026;35.960;2023-02-01T05:07:50;13.23;;;5.45;;
75044;SDS011;63614;56.026;35.960;2023-02-01T05:10:16;11.48;;;5.93;;
75044;SDS011;63614;56.026;35.960;2023-02-01T05:12:43;9.63;;;4.82;;
75044;SDS011;63614;56.026;35.960;2023-02-01T05:15:28;8.98;;;5.82;;
75044;SDS011;63614;56.026;35.960;2023-02-01T05:17:54;11.50;;;5.18;;
75044;SDS011;63614;56.026;35.960;2023-02-01T05:20:20;8.98;;;4.25;;
75044;SDS011;63614;56.026;35.960;2023-02-01T05:22:46;9.15;;;4.90;;
75044;SDS011;63614;56.026;35.960;2023-02-01T05:25:11;13.63;;;5.28;;
75044;SDS011;63614;56.026;35.960;2023-02-01T05:27:38;10.13;;;5.38;;
75044;SDS011;63614;56.026;35.960;2023-02-01T05:30:04;19.17;;;6.55;;
75044;SDS011;63614;56.026;35.960;2023-02-01T05:32:30;14.35;;;7.90;;
75044;SDS011;63614;56.026;35.960;2023-02-01T05:34:56;13.07;;;6.63;;
75044;SDS011;63614;56.026;35.960;2023-02-01T05:37:22;15.88;;;7.43;;
75044;SDS011;63614;56.026;35.960;2023-02-01T05:39:48;16.60;;;8.55;;
75044;SDS011;63614;56.026;35.960;2023-02-01T05:42:14;23.42;;;11.32;;
75044;SDS011;63614;56.026;35.960;2023-02-01T05:44:40;24.88;;;11.30;;
75044;SDS011;63614;56.026;35.960;2023-02-01T05:47:06;20.95;;;10.90;;
75044;SDS011;63614;56.026;35.960;2023-02-01T05:49:32;20.08;;;10.07;;
75044;SDS011;63614;56.026;35.960;2023-02-01T05:51:58;17.35;;;9.65;;
75044;SDS011;63614;56.026;35.960;2023-02-01T05:54:24;16.83;;;9.57;;
75044;SDS011;63614;56.026;35.960;2023-02-01T05:56:50;19.77;;;10.02;;
75044;SDS011;63614;56.026;35.960;2023-02-01T05:59:15;25.85;;;14.85;;
75044;SDS011;63614;56.026;35.960;2023-02-01T06:01:41;23.33;;;12.18;;
75044;SDS011;63614;56.026;35.960;2023-02-01T06:04:07;20.05;;;11.60;;
75044;SDS011;63614;56.026;35.960;2023-02-01T06:06:33;24.73;;;11.60;;
75044;SDS011;63614;56.026;35.960;2023-02-01T06:08:59;21.17;;;12.50;;
75044;SDS011;63614;56.026;35.960;2023-02-01T06:11:25;21.13;;;10.88;;
75044;SDS011;63614;56.026;35.960;2023-02-01T06:13:53;19.80;;;10.00;;
75044;SDS011;63614;56.026;35.960;2023-02-01T06:16:19;19.50;;;9.45;;
75044;SDS011;63614;56.026;35.960;2023-02-01T06:18:45;22.63;;;9.57;;
75044;SDS011;63614;56.026;35.960;2023-02-01T06:21:10;18.60;;;8.90;;
75044;SDS011;63614;56.026;35.960;2023-02-01T06:23:38;24.90;;;9.63;;
75044;SDS011;63614;56.026;35.960;2023-02-01T06:26:05;27.90;;;10.32;;
75044;SDS011;63614;56.026;35.960;2023-02-01T06:28:33;19.02;;;9.50;;
75044;SDS011;63614;56.026;35.960;2023-02-01T06:31:03;17.30;;;8.63;;
75044;SDS011;63614;56.026;35.960;2023-02-01T06:33:35;15.70;;;7.60;;
75044;SDS011;63614;56.026;35.960;2023-02-01T06:36:02;11.68;;;6.60;;
75044;SDS011;63614;56.026;35.960;2023-02-01T06:38:30;14.98;;;7.13;;
75044;SDS011;63614;56.026;35.960;2023-02-01T06:40:56;17.25;;;7.00;;
75044;SDS011;63614;56.026;35.960;2023-02-01T06:43:23;20.73;;;8.23;;
75044;SDS011;63614;56.026;35.960;2023-02-01T06:45:51;23.08;;;9.00;;
75044;SDS011;63614;56.026;35.960;2023-02-01T06:48:17;12.57;;;7.53;;
75044;SDS011;63614;56.026;35.960;2023-02-01T06:50:43;9.07;;;5.82;;
75044;SDS011;63614;56.026;35.960;2023-02-01T06:53:09;9.82;;;5.10;;
75044;SDS011;63614;56.026;35.960;2023-02-01T06:55:35;25.52;;;11.55;;
75044;SDS011;63614;56.026;35.960;2023-02-01T06:58:01;10.20;;;5.30;;
75044;SDS011;63614;56.026;35.960;2023-02-01T07:00:28;10.05;;;4.60;;
75044;SDS011;63614;56.026;35.960;2023-02-01T07:02:54;11.50;;;4.65;;
75044;SDS011;63614;56.026;35.960;2023-02-01T07:05:20;15.07;;;5.45;;
75044;SDS011;63614;56.026;35.960;2023-02-01T07:07:46;12.15;;;5.30;;
75044;SDS011;63614;56.026;35.960;2023-02-01T07:10:12;10.20;;;5.35;;
75044;SDS011;63614;56.026;35.960;2023-02-01T07:12:38;16.33;;;5.38;;
75044;SDS011;63614;56.026;35.960;2023-02-01T07:15:04;12.32;;;5.43;;
75044;SDS011;63614;56.026;35.960;2023-02-01T07:17:31;9.07;;;5.60;;
75044;SDS011;63614;56.026;35.960;2023-02-01T07:19:57;10.38;;;5.47;;
75044;SDS011;63614;56.026;35.960;2023-02-01T07:22:25;12.02;;;5.68;;
75044;SDS011;63614;56.026;35.960;2023-02-01T07:24:51;8.60;;;4.97;;
75044;SDS011;63614;56.026;35.960;2023-02-01T07:27:17;8.95;;;5.65;;
75044;SDS011;63614;56.026;35.960;2023-02-01T07:29:43;8.75;;;5.30;;
75044;SDS011;63614;56.026;35.960;2023-02-01T07:32:09;10.98;;;5.43;;
75044;SDS011;63614;56.026;35.960;2023-02-01T07:34:35;10.18;;;5.47;;
75044;SDS011;63614;56.026;35.960;2023-02-01T07:37:00;11.52;;;6.43;;
75044;SDS011;63614;56.026;35.960;2023-02-01T07:39:26;15.50;;;7.60;;
75044;SDS011;63614;56.026;35.960;2023-02-01T07:41:53;10.50;;;6.13;;
75044;SDS011;63614;56.026;35.960;2023-02-01T07:44:19;10.90;;;5.72;;
75044;SDS011;63614;56.026;35.960;2023-02-01T07:46:48;11.23;;;6.75;;
75044;SDS011;63614;56.026;35.960;2023-02-01T07:49:17;16.08;;;7.00;;
75044;SDS011;63614;56.026;35.960;2023-02-01T07:51:43;10.45;;;6.13;;
75044;SDS011;63614;56.026;35.960;2023-02-01T07:54:08;10.73;;;6.43;;
75044;SDS011;63614;56.026;35.960;2023-02-01T07:56:34;14.45;;;6.85;;
75044;SDS011;63614;56.026;35.960;2023-02-01T07:59:00;12.20;;;6.50;;
75044;SDS011;63614;56.026;35.960;2023-02-01T08:01:27;19.17;;;6.65;;
75044;SDS011;63614;56.026;35.960;2023-02-01T08:03:55;9.40;;;6.03;;
75044;SDS011;63614;56.026;35.960;2023-02-01T08:06:29;12.52;;;6.32;;
75044;SDS011;63614;56.026;35.960;2023-02-01T08:08:57;11.43;;;7.20;;
75044;SDS011;63614;56.026;35.960;2023-02-01T08:11:24;14.32;;;6.93;;
75044;SDS011;63614;56.026;35.960;2023-02-01T08:13:51;13.38;;;6.13;;
75044;SDS011;63614;56.026;35.960;2023-02-01T08:16:18;9.57;;;5.87;;
75044;SDS011;63614;56.026;35.960;2023-02-01T08:18:45;11.15;;;6.70;;
75044;SDS011;63614;56.026;35.960;2023-02-01T08:21:12;10.48;;;5.95;;
75044;SDS011;63614;56.026;35.960;2023-02-01T08:23:42;16.00;;;6.43;;
75044;SDS011;63614;56.026;35.960;2023-02-01T08:26:10;12.75;;;6.60;;
75044;SDS011;63614;56.026;35.960;2023-02-01T08:28:44;13.93;;;6.32;;
75044;SDS011;63614;56.026;35.960;2023-02-01T08:31:15;10.38;;;6.07;;
75044;SDS011;63614;56.026;35.960;2023-02-01T08:33:43;12.27;;;6.15;;
75044;SDS011;63614;56.026;35.960;2023-02-01T08:36:12;9.93;;;5.90;;
75044;SDS011;63614;56.026;35.960;2023-02-01T08:38:38;11.38;;;6.15;;
75044;SDS011;63614;56.026;35.960;2023-02-01T08:41:08;11.07;;;6.53;;
75044;SDS011;63614;56.026;35.960;2023-02-01T08:43:36;9.38;;;5.82;;
75044;SDS011;63614;56.026;35.960;2023-02-01T08:46:03;11.63;;;6.70;;
75044;SDS011;63614;56.026;35.960;2023-02-01T08:48:29;12.45;;;6.53;;
75044;SDS011;63614;56.026;35.960;2023-02-01T08:50:56;9.77;;;5.90;;
75044;SDS011;63614;56.026;35.960;2023-02-01T08:53:22;13.00;;;6.13;;
75044;SDS011;63614;56.026;35.960;2023-02-01T08:55:48;13.07;;;6.95;;
75044;SDS011;63614;56.026;35.960;2023-02-01T08:58:15;13.07;;;5.95;;
75044;SDS011;63614;56.026;35.960;2023-02-01T09:00:43;11.83;;;6.33;;
75044;SDS011;63614;56.026;35.960;2023-02-01T09:03:13;16.58;;;7.00;;
75044;SDS011;63614;56.026;35.960;2023-02-01T09:05:39;14.55;;;6.57;;
75044;SDS011;63614;56.026;35.960;2023-02-01T09:08:05;12.77;;;6.85;;
75044;SDS011;63614;56.026;35.960;2023-02-01T09:10:31;15.38;;;6.50;;
75044;SDS011;63614;56.026;35.960;2023-02-01T09:12:57;11.35;;;6.20;;
75044;SDS011;63614;56.026;35.960;2023-02-01T09:15:23;9.73;;;6.47;;
75044;SDS011;63614;56.026;35.960;2023-02-01T09:17:49;14.43;;;6.45;;
75044;SDS011;63614;56.026;35.960;2023-02-01T09:20:15;10.93;;;7.32;;
75044;SDS011;63614;56.026;35.960;2023-02-01T09:22:41;11.68;;;7.07;;
75044;SDS011;63614;56.026;35.960;2023-02-01T09:25:07;10.13;;;5.90;;
75044;SDS011;63614;56.026;35.960;2023-02-01T09:27:33;13.85;;;6.72;;
75044;SDS011;63614;56.026;35.960;2023-02-01T09:29:59;10.63;;;6.28;;
75044;SDS011;63614;56.026;35.960;2023-02-01T09:32:25;10.77;;;6.60;;
75044;SDS011;63614;56.026;35.960;2023-02-01T09:34:51;17.45;;;9.20;;
75044;SDS011;63614;56.026;35.960;2023-02-01T09:37:18;15.60;;;7.43;;
75044;SDS011;63614;56.026;35.960;2023-02-01T09:39:44;11.45;;;6.60;;
75044;SDS011;63614;56.026;35.960;2023-02-01T09:42:54;10.88;;;6.00;;
75044;SDS011;63614;56.026;35.960;2023-02-01T09:45:03;13.10;;;6.25;;
75044;SDS011;63614;56.026;35.960;2023-02-01T09:47:42;8.85;;;5.60;;
75044;SDS011;63614;56.026;35.960;2023-02-01T09:50:19;11.25;;;4.63;;
75044;SDS011;63614;56.026;35.960;2023-02-01T09:55:42;10.18;;;4.90;;
75044;SDS011;63614;56.026;35.960;2023-02-01T10:01:18;6.32;;;3.47;;
75044;SDS011;63614;56.026;35.960;2023-02-01T10:03:47;5.88;;;3.47;;
75044;SDS011;63614;56.026;35.960;2023-02-01T10:06:18;8.25;;;3.67;;
75044;SDS011;63614;56.026;35.960;2023-02-01T10:11:32;7.43;;;3.40;;
75044;SDS011;63614;56.026;35.960;2023-02-01T10:22:45;7.80;;;3.00;;
75044;SDS011;63614;56.026;35.960;2023-02-01T10:25:24;7.15;;;3.92;;
75044;SDS011;63614;56.026;35.960;2023-02-01T10:27:53;7.22;;;3.65;;
75044;SDS011;63614;56.026;35.960;2023-02-01T10:30:21;6.82;;;4.43;;
75044;SDS011;63614;56.026;35.960;2023-02-01T10:32:49;12.02;;;4.88;;
75044;SDS011;63614;56.026;35.960;2023-02-01T10:35:27;7.95;;;4.72;;
75044;SDS011;63614;56.026;35.960;2023-02-01T10:37:59;9.93;;;4.28;;
75044;SDS011;63614;56.026;35.960;2023-02-01T10:40:27;6.45;;;4.13;;
75044;SDS011;63614;56.026;35.960;2023-02-01T10:42:54;8.13;;;4.65;;
75044;SDS011;63614;56.026;35.960;2023-02-01T10:45:25;4.80;;;3.53;;
75044;SDS011;63614;56.026;35.960;2023-02-01T10:47:53;7.15;;;4.00;;
75044;SDS011;63614;56.026;35.960;2023-02-01T10:55:53;6.75;;;3.80;;
75044;SDS011;63614;56.026;35.960;2023-02-01T10:58:21;14.32;;;4.63;;
75044;SDS011;63614;56.026;35.960;2023-02-01T11:00:56;6.47;;;3.42;;
75044;SDS011;63614;56.026;35.960;2023-02-01T11:06:00;5.07;;;2.97;;
75044;SDS011;63614;56.026;35.960;2023-02-01T11:08:28;6.40;;;2.63;;
75044;SDS011;63614;56.026;35.960;2023-02-01T11:10:59;5.13;;;2.50;;
75044;SDS011;63614;56.026;35.960;2023-02-01T11:13:30;5.13;;;2.60;;
75044;SDS011;63614;56.026;35.960;2023-02-01T11:16:01;8.07;;;3.00;;
75044;SDS011;63614;56.026;35.960;2023-02-01T11:18:29;7.15;;;2.42;;
75044;SDS011;63614;56.026;35.960;2023-02-01T11:20:57;8.25;;;2.38;;
75044;SDS011;63614;56.026;35.960;2023-02-01T11:23:25;10.63;;;2.60;;
75044;SDS011;63614;56.026;35.960;2023-02-01T11:26:00;6.90;;;2.60;;
75044;SDS011;63614;56.026;35.960;2023-02-01T11:28:33;10.35;;;3.42;;
75044;SDS011;63614;56.026;35.960;2023-02-01T11:31:04;8.45;;;3.25;;
75044;SDS011;63614;56.026;35.960;2023-02-01T11:33:35;10.48;;;3.42;;
75044;SDS011;63614;56.026;35.960;2023-02-01T11:36:07;7.20;;;3.58;;
75044;SDS011;63614;56.026;35.960;2023-02-01T11:38:35;8.60;;;3.85;;
75044;SDS011;63614;56.026;35.960;2023-02-01T11:41:11;11.30;;;4.38;;
75044;SDS011;63614;56.026;35.960;2023-02-01T11:43:49;8.57;;;4.63;;
75044;SDS011;63614;56.026;35.960;2023-02-01T11:46:17;9.30;;;4.47;;
75044;SDS011;63614;56.026;35.960;2023-02-01T11:48:50;10.65;;;4.47;;
75044;SDS011;63614;56.026;35.960;2023-02-01T11:51:21;13.55;;;5.65;;
75044;SDS011;63614;56.026;35.960;2023-02-01T12:06:55;16.23;;;5.75;;
75044;SDS011;63614;56.026;35.960;2023-02-01T12:14:36;18.88;;;10.00;;
75044;SDS011;63614;56.026;35.960;2023-02-01T12:22:42;19.17;;;9.90;;
75044;SDS011;63614;56.026;35.960;2023-02-01T12:36:12;26.55;;;13.23;;
75044;SDS011;63614;56.026;35.960;2023-02-01T12:46:31;26.98;;;15.38;;
75044;SDS011;63614;56.026;35.960;2023-02-01T12:49:08;29.20;;;16.05;;
75044;SDS011;63614;56.026;35.960;2023-02-01T12:51:36;29.10;;;14.75;;
75044;SDS011;63614;56.026;35.960;2023-02-01T12:54:22;30.02;;;16.33;;
75044;SDS011;63614;56.026;35.960;2023-02-01T12:56:57;31.95;;;16.85;;
75044;SDS011;63614;56.026;35.960;2023-02-01T13:05:17;32.15;;;16.67;;
75044;SDS011;63614;56.026;35.960;2023-02-01T13:08:20;31.33;;;17.02;;
75044;SDS011;63614;56.026;35.960;2023-02-01T13:10:45;28.58;;;14.60;;
75044;SDS011;63614;56.026;35.960;2023-02-01T13:15:49;26.85;;;15.15;;
75044;SDS011;63614;56.026;35.960;2023-02-01T13:18:22;32.85;;;14.75;;
75044;SDS011;63614;56.026;35.960;2023-02-01T13:21:08;31.10;;;15.57;;
75044;SDS011;63614;56.026;35.960;2023-02-01T13:23:39;30.92;;;15.50;;
75044;SDS011;63614;56.026;35.960;2023-02-01T13:26:07;28.20;;;14.55;;
75044;SDS011;63614;56.026;35.960;2023-02-01T13:31:24;27.95;;;15.60;;
75044;SDS011;63614;56.026;35.960;2023-02-01T13:42:22;30.40;;;14.68;;
75044;SDS011;63614;56.026;35.960;2023-02-01T13:44:55;26.70;;;14.95;;
75044;SDS011;63614;56.026;35.960;2023-02-01T13:49:53;24.83;;;14.35;;
75044;SDS011;63614;56.026;35.960;2023-02-01T13:52:24;29.63;;;15.48;;
75044;SDS011;63614;56.026;35.960;2023-02-01T13:57:46;26.85;;;14.50;;
75044;SDS011;63614;56.026;35.960;2023-02-01T14:13:27;23.35;;;13.10;;
75044;SDS011;63614;56.026;35.960;2023-02-01T14:23:42;23.98;;;13.35;;
75044;SDS011;63614;56.026;35.960;2023-02-01T14:26:13;28.15;;;13.38;;
75044;SDS011;63614;56.026;35.960;2023-02-01T14:28:43;28.58;;;14.00;;
75044;SDS011;63614;56.026;35.960;2023-02-01T14:31:14;22.98;;;12.68;;
75044;SDS011;63614;56.026;35.960;2023-02-01T14:34:00;22.80;;;13.63;;
75044;SDS011;63614;56.026;35.960;2023-02-01T14:36:43;29.30;;;14.13;;
75044;SDS011;63614;56.026;35.960;2023-02-01T14:53:20;24.67;;;13.23;;
75044;SDS011;63614;56.026;35.960;2023-02-01T15:01:36;20.52;;;12.52;;
75044;SDS011;63614;56.026;35.960;2023-02-01T15:04:11;25.52;;;13.55;;
75044;SDS011;63614;56.026;35.960;2023-02-01T15:06:44;22.90;;;12.13;;
75044;SDS011;63614;56.026;35.960;2023-02-01T15:12:02;23.95;;;12.85;;
75044;SDS011;63614;56.026;35.960;2023-02-01T15:14:39;23.70;;;12.43;;
75044;SDS011;63614;56.026;35.960;2023-02-01T15:20:10;27.60;;;14.15;;
75044;SDS011;63614;56.026;35.960;2023-02-01T15:22:42;24.48;;;13.00;;
75044;SDS011;63614;56.026;35.960;2023-02-01T15:25:19;24.08;;;13.52;;
75044;SDS011;63614;56.026;35.960;2023-02-01T15:27:56;24.23;;;13.10;;
75044;SDS011;63614;56.026;35.960;2023-02-01T15:30:26;25.60;;;13.50;;
75044;SDS011;63614;56.026;35.960;2023-02-01T15:35:43;30.00;;;14.73;;
75044;SDS011;63614;56.026;35.960;2023-02-01T15:38:44;27.23;;;14.77;;
75044;SDS011;63614;56.026;35.960;2023-02-01T15:41:11;25.73;;;14.18;;
75044;SDS011;63614;56.026;35.960;2023-02-01T15:46:35;27.63;;;15.15;;
75044;SDS011;63614;56.026;35.960;2023-02-01T15:49:05;24.88;;;13.30;;
75044;SDS011;63614;56.026;35.960;2023-02-01T15:51:46;30.88;;;14.23;;
75044;SDS011;63614;56.026;35.960;2023-02-01T15:54:16;25.88;;;13.13;;
75044;SDS011;63614;56.026;35.960;2023-02-01T15:56:49;26.80;;;14.38;;
75044;SDS011;63614;56.026;35.960;2023-02-01T15:59:24;24.52;;;13.90;;
75044;SDS011;63614;56.026;35.960;2023-02-01T16:01:55;23.15;;;13.25;;
75044;SDS011;63614;56.026;35.960;2023-02-01T16:04:22;27.38;;;14.82;;
75044;SDS011;63614;56.026;35.960;2023-02-01T16:06:59;24.77;;;14.25;;
75044;SDS011;63614;56.026;35.960;2023-02-01T16:09:36;32.05;;;15.52;;
75044;SDS011;63614;56.026;35.960;2023-02-01T16:12:19;23.27;;;13.80;;
75044;SDS011;63614;56.026;35.960;2023-02-01T16:14:53;25.92;;;14.13;;
75044;SDS011;63614;56.026;35.960;2023-02-01T16:17:19;32.10;;;14.23;;
75044;SDS011;63614;56.026;35.960;2023-02-01T16:19:44;24.85;;;13.90;;
75044;SDS011;63614;56.026;35.960;2023-02-01T16:22:10;26.17;;;13.50;;
75044;SDS011;63614;56.026;35.960;2023-02-01T16:24:36;26.45;;;14.05;;
75044;SDS011;63614;56.026;35.960;2023-02-01T16:27:04;26.10;;;14.38;;
75044;SDS011;63614;56.026;35.960;2023-02-01T16:29:32;25.52;;;13.35;;
75044;SDS011;63614;56.026;35.960;2023-02-01T16:31:58;26.30;;;14.88;;
75044;SDS011;63614;56.026;35.960;2023-02-01T16:34:25;23.75;;;14.18;;
75044;SDS011;63614;56.026;35.960;2023-02-01T16:36:50;24.73;;;13.95;;
75044;SDS011;63614;56.026;35.960;2023-02-01T16:39:18;31.25;;;14.18;;
75044;SDS011;63614;56.026;35.960;2023-02-01T16:41:44;28.17;;;13.98;;
75044;SDS011;63614;56.026;35.960;2023-02-01T16:44:10;26.85;;;14.25;;
75044;SDS011;63614;56.026;35.960;2023-02-01T16:46:39;28.75;;;13.90;;
75044;SDS011;63614;56.026;35.960;2023-02-01T16:49:15;26.90;;;13.27;;
75044;SDS011;63614;56.026;35.960;2023-02-01T16:51:44;26.55;;;14.20;;
75044;SDS011;63614;56.026;35.960;2023-02-01T16:54:11;28.48;;;13.82;;
75044;SDS011;63614;56.026;35.960;2023-02-01T16:56:36;26.38;;;14.02;;
75044;SDS011;63614;56.026;35.960;2023-02-01T16:59:05;27.30;;;13.77;;
75044;SDS011;63614;56.026;35.960;2023-02-01T17:01:34;26.25;;;14.18;;
75044;SDS011;63614;56.026;35.960;2023-02-01T17:04:01;27.35;;;13.80;;
75044;SDS011;63614;56.026;35.960;2023-02-01T17:06:27;29.85;;;14.48;;
75044;SDS011;63614;56.026;35.960;2023-02-01T17:08:55;27.38;;;14.20;;
75044;SDS011;63614;56.026;35.960;2023-02-01T17:11:26;26.70;;;14.23;;
75044;SDS011;63614;56.026;35.960;2023-02-01T17:13:52;27.95;;;13.13;;
75044;SDS011;63614;56.026;35.960;2023-02-01T17:18:50;27.25;;;13.95;;
75044;SDS011;63614;56.026;35.960;2023-02-01T17:21:31;28.60;;;14.05;;
75044;SDS011;63614;56.026;35.960;2023-02-01T17:24:05;28.50;;;13.88;;
75044;SDS011;63614;56.026;35.960;2023-02-01T17:26:31;25.67;;;13.23;;
75044;SDS011;63614;56.026;35.960;2023-02-01T17:28:57;28.13;;;12.20;;
75044;SDS011;63614;56.026;35.960;2023-02-01T17:31:23;27.50;;;13.82;;
75044;SDS011;63614;56.026;35.960;2023-02-01T17:33:49;24.20;;;12.35;;
75044;SDS011;63614;56.026;35.960;2023-02-01T17:36:16;24.95;;;13.18;;
75044;SDS011;63614;56.026;35.960;2023-02-01T17:41:12;21.75;;;11.52;;
75044;SDS011;63614;56.026;35.960;2023-02-01T17:43:38;28.73;;;11.63;;
75044;SDS011;63614;56.026;35.960;2023-02-01T17:46:09;21.63;;;10.90;;
75044;SDS011;63614;56.026;35.960;2023-02-01T17:48:37;23.73;;;11.35;;
75044;SDS011;63614;56.026;35.960;2023-02-01T17:51:03;23.52;;;11.73;;
75044;SDS011;63614;56.026;35.960;2023-02-01T17:53:30;23.42;;;11.85;;
75044;SDS011;63614;56.026;35.960;2023-02-01T17:55:58;25.63;;;13.05;;
75044;SDS011;63614;56.026;35.960;2023-02-01T17:58:24;30.42;;;13.63;;
75044;SDS011;63614;56.026;35.960;2023-02-01T18:00:50;24.48;;;13.00;;
75044;SDS011;63614;56.026;35.960;2023-02-01T18:03:24;26.92;;;12.82;;
75044;SDS011;63614;56.026;35.960;2023-02-01T18:05:52;28.10;;;13.20;;
75044;SDS011;63614;56.026;35.960;2023-02-01T18:08:20;25.58;;;13.35;;
75044;SDS011;63614;56.026;35.960;2023-02-01T18:10:51;27.63;;;12.82;;
75044;SDS011;63614;56.026;35.960;2023-02-01T18:13:20;26.58;;;12.77;;
75044;SDS011;63614;56.026;35.960;2023-02-01T18:15:48;30.33;;;12.68;;
75044;SDS011;63614;56.026;35.960;2023-02-01T18:18:13;27.02;;;12.35;;
75044;SDS011;63614;56.026;35.960;2023-02-01T18:20:40;22.63;;;11.85;;
75044;SDS011;63614;56.026;35.960;2023-02-01T18:23:15;24.20;;;12.02;;
75044;SDS011;63614;56.026;35.960;2023-02-01T18:25:47;26.23;;;13.13;;
75044;SDS011;63614;56.026;35.960;2023-02-01T18:28:17;28.65;;;12.63;;
75044;SDS011;63614;56.026;35.960;2023-02-01T18:30:45;22.35;;;11.75;;
75044;SDS011;63614;56.026;35.960;2023-02-01T18:33:14;27.17;;;12.90;;
75044;SDS011;63614;56.026;35.960;2023-02-01T18:35:41;25.95;;;11.70;;
75044;SDS011;63614;56.026;35.960;2023-02-01T18:38:10;24.80;;;12.75;;
75044;SDS011;63614;56.026;35.960;2023-02-01T18:40:39;25.05;;;12.18;;
75044;SDS011;63614;56.026;35.960;2023-02-01T18:43:16;26.70;;;12.88;;
75044;SDS011;63614;56.026;35.960;2023-02-01T18:45:43;27.95;;;12.30;;
75044;SDS011;63614;56.026;35.960;2023-02-01T18:48:10;24.60;;;12.07;;
75044;SDS011;63614;56.026;35.960;2023-02-01T18:50:38;32.22;;;12.52;;
75044;SDS011;63614;56.026;35.960;2023-02-01T18:53:06;26.92;;;11.98;;
75044;SDS011;63614;56.026;35.960;2023-02-01T18:55:36;23.75;;;11.52;;
75044;SDS011;63614;56.026;35.960;2023-02-01T18:58:02;24.55;;;11.13;;
75044;SDS011;63614;56.026;35.960;2023-02-01T19:00:31;23.38;;;11.57;;
75044;SDS011;63614;56.026;35.960;2023-02-01T19:02:58;27.98;;;10.88;;
75044;SDS011;63614;56.026;35.960;2023-02-01T19:05:24;23.50;;;10.80;;
75044;SDS011;63614;56.026;35.960;2023-02-01T19:07:50;25.20;;;11.27;;
75044;SDS011;63614;56.026;35.960;2023-02-01T19:10:18;26.10;;;11.75;;
75044;SDS011;63614;56.026;35.960;2023-02-01T19:12:52;23.27;;;11.40;;
75044;SDS011;63614;56.026;35.960;2023-02-01T19:15:21;23.90;;;11.68;;
75044;SDS011;63614;56.026;35.960;2023-02-01T19:17:49;23.88;;;11.50;;
75044;SDS011;63614;56.026;35.960;2023-02-01T19:20:20;25.10;;;12.27;;
75044;SDS011;63614;56.026;35.960;2023-02-01T19:22:49;28.55;;;12.48;;
75044;SDS011;63614;56.026;35.960;2023-02-01T19:25:19;26.13;;;12.13;;
75044;SDS011;63614;56.026;35.960;2023-02-01T19:27:47;20.63;;;10.70;;
75044;SDS011;63614;56.026;35.960;2023-02-01T19:30:14;22.27;;;9.85;;
75044;SDS011;63614;56.026;35.960;2023-02-01T19:32:40;37.72;;;12.38;;
75044;SDS011;63614;56.026;35.960;2023-02-01T19:35:06;26.60;;;11.82;;
75044;SDS011;63614;56.026;35.960;2023-02-01T19:37:34;27.58;;;12.48;;
75044;SDS011;63614;56.026;35.960;2023-02-01T19:40:01;23.08;;;11.82;;
75044;SDS011;63614;56.026;35.960;2023-02-01T19:42:28;24.77;;;10.70;;
75044;SDS011;63614;56.026;35.960;2023-02-01T19:44:54;25.98;;;12.23;;
75044;SDS011;63614;56.026;35.960;2023-02-01T19:47:20;26.88;;;12.27;;
75044;SDS011;63614;56.026;35.960;2023-02-01T19:49:46;26.27;;;12.27;;
75044;SDS011;63614;56.026;35.960;2023-02-01T19:52:12;25.17;;;12.45;;
75044;SDS011;63614;56.026;35.960;2023-02-01T19:54:37;23.38;;;12.02;;
75044;SDS011;63614;56.026;35.960;2023-02-01T19:57:03;21.65;;;11.13;;
75044;SDS011;63614;56.026;35.960;2023-02-01T19:59:30;31.43;;;12.13;;